createdAt,value
2023-04-15T00:00:59.762Z,6.41
2023-04-15T00:05:52.067Z,6.42
2023-04-15T00:10:44.319Z,6.40
2023-04-15T00:15:35.914Z,6.38
2023-04-15T00:20:27.760Z,6.33
2023-04-15T00:25:19.578Z,6.29
2023-04-15T00:30:11.829Z,6.31
2023-04-15T00:35:04.332Z,6.28
2023-04-15T00:39:55.904Z,6.27
2023-04-15T00:44:47.493Z,6.33
2023-04-15T00:49:39.071Z,6.35
2023-04-15T00:54:30.662Z,6.34
2023-04-15T00:59:22.259Z,6.35
2023-04-15T01:04:14.082Z,6.31
2023-04-15T01:09:05.794Z,6.33
2023-04-15T01:13:59.000Z,6.34
2023-04-15T01:18:50.798Z,6.31
2023-04-15T01:23:47.240Z,6.31
2023-04-15T01:28:39.242Z,6.22
2023-04-15T01:33:30.828Z,6.25
2023-04-15T01:38:22.736Z,6.22
2023-04-15T01:43:15.490Z,6.23
2023-04-15T01:48:07.322Z,6.27
2023-04-15T01:52:59.151Z,6.23
2023-04-15T01:57:50.816Z,6.24
2023-04-15T02:02:42.495Z,6.25
2023-04-15T02:07:34.161Z,6.25
2023-04-15T02:12:26.084Z,6.24
2023-04-15T02:17:17.683Z,6.23
2023-04-15T02:22:09.510Z,6.23
2023-04-15T02:27:01.844Z,6.24
2023-04-15T02:31:53.514Z,6.22
2023-04-15T02:36:46.927Z,6.24
2023-04-15T02:41:38.569Z,6.23
2023-04-15T02:46:30.233Z,6.18
2023-04-15T02:51:22.904Z,6.18
2023-04-15T02:56:19.387Z,6.17
2023-04-15T03:01:11.575Z,6.14
2023-04-15T03:06:03.351Z,6.08
2023-04-15T03:10:54.945Z,6.08
2023-04-15T03:15:47.487Z,6.07
2023-04-15T03:20:39.183Z,6.05
2023-04-15T03:25:30.818Z,6.01
2023-04-15T03:30:22.404Z,6.01
2023-04-15T03:35:13.973Z,6.04
2023-04-15T03:40:06.210Z,6.03
2023-04-15T03:44:57.809Z,6.03
2023-04-15T03:49:49.397Z,6.01
2023-04-15T03:54:41.089Z,6.00
2023-04-15T03:59:32.646Z,6.01
2023-04-15T04:04:24.405Z,6.00
2023-04-15T04:09:16.301Z,6.02
2023-04-15T04:14:07.902Z,5.97
2023-04-15T04:18:59.672Z,5.89
2023-04-15T04:23:51.413Z,5.87
2023-04-15T04:28:43.059Z,5.81
2023-04-15T04:33:34.794Z,5.71
2023-04-15T04:38:26.393Z,5.57
2023-04-15T04:43:18.173Z,5.47
2023-04-15T04:48:10.617Z,5.29
2023-04-15T04:53:02.532Z,5.25
2023-04-15T04:57:54.139Z,5.13
2023-04-15T05:02:46.325Z,5.09
2023-04-15T05:07:39.497Z,5.09
2023-04-15T05:12:31.570Z,5.02
2023-04-15T05:17:23.279Z,4.93
2023-04-15T05:22:14.884Z,4.90
2023-04-15T05:27:06.534Z,4.92
2023-04-15T05:31:58.196Z,4.83
2023-04-15T05:36:49.767Z,4.75
2023-04-15T05:41:41.397Z,4.76
2023-04-15T05:46:33.029Z,4.80
2023-04-15T05:51:24.700Z,4.86
2023-04-15T05:56:16.464Z,4.97
2023-04-15T06:01:08.161Z,5.08
2023-04-15T06:06:00.901Z,5.17
2023-04-15T06:10:52.513Z,5.25
2023-04-15T06:15:44.065Z,5.32
2023-04-15T06:20:36.677Z,5.27
2023-04-15T06:25:28.247Z,5.36
2023-04-15T06:30:19.892Z,5.48
2023-04-15T06:35:11.712Z,5.55
2023-04-15T06:40:05.197Z,5.66
2023-04-15T06:44:56.849Z,5.88
2023-04-15T06:49:48.488Z,6.16
2023-04-15T06:54:40.088Z,6.53
2023-04-15T06:59:31.824Z,6.97
2023-04-15T07:04:24.634Z,7.45
2023-04-15T07:09:16.276Z,8.39
2023-04-15T07:14:08.515Z,9.12
2023-04-15T07:19:00.293Z,9.10
2023-04-15T07:23:52.534Z,8.81
2023-04-15T07:28:44.143Z,8.47
2023-04-15T07:33:37.123Z,8.66
2023-04-15T07:38:28.946Z,8.89
2023-04-15T07:43:21.388Z,9.10
2023-04-15T07:48:13.000Z,9.25
2023-04-15T07:53:05.746Z,9.76
2023-04-15T07:57:57.350Z,10.48
2023-04-15T08:02:49.942Z,11.25
2023-04-15T08:07:41.813Z,11.73
2023-04-15T08:12:33.410Z,12.78
2023-04-15T08:17:25.272Z,13.49
2023-04-15T08:22:18.903Z,14.05
2023-04-15T08:27:11.420Z,14.82
2023-04-15T08:32:03.163Z,15.55
2023-04-15T08:36:54.831Z,15.93
2023-04-15T08:41:48.283Z,16.45
2023-04-15T08:46:42.589Z,16.76
2023-04-15T08:51:34.698Z,16.96
2023-04-15T08:56:28.175Z,17.31
2023-04-15T09:01:20.660Z,17.58
2023-04-15T09:06:12.633Z,17.45
2023-04-15T09:11:04.238Z,17.85
2023-04-15T09:15:56.730Z,18.16
2023-04-15T09:20:48.380Z,18.19
2023-04-15T09:25:42.656Z,18.30
2023-04-15T09:30:34.913Z,18.94
2023-04-15T09:35:27.730Z,19.35
2023-04-15T09:40:36.492Z,19.09
2023-04-15T09:45:29.685Z,19.25
2023-04-15T09:50:21.580Z,19.74
2023-04-15T09:55:16.173Z,20.20
2023-04-15T10:00:11.168Z,20.09
2023-04-15T10:05:03.263Z,19.43
2023-04-15T10:09:56.055Z,18.47
2023-04-15T10:15:05.325Z,17.80
2023-04-15T10:19:57.108Z,17.31
2023-04-15T10:24:49.954Z,16.91
2023-04-15T10:29:42.492Z,16.67
2023-04-15T10:34:35.003Z,16.15
2023-04-15T10:39:41.090Z,15.85
2023-04-15T10:44:32.854Z,15.72
2023-04-15T10:49:25.992Z,15.78
2023-04-15T10:54:32.398Z,16.73
2023-04-15T10:59:23.933Z,17.40
2023-04-15T11:04:15.761Z,17.18
2023-04-15T11:09:09.665Z,17.03
2023-04-15T11:14:03.179Z,17.26
2023-04-15T11:18:56.226Z,17.74
2023-04-15T11:23:47.809Z,17.99
2023-04-15T11:28:41.657Z,17.94
2023-04-15T11:33:33.279Z,17.45
2023-04-15T11:38:24.926Z,17.16
2023-04-15T11:43:22.465Z,17.47
2023-04-15T11:48:14.628Z,18.21
2023-04-15T11:53:08.650Z,18.99
2023-04-15T11:58:08.297Z,19.39
2023-04-15T12:03:19.419Z,19.58
2023-04-15T12:08:11.276Z,19.55
2023-04-15T12:13:07.392Z,19.42
2023-04-15T12:17:59.177Z,19.22
2023-04-15T12:22:50.753Z,19.07
2023-04-15T12:27:42.645Z,18.66
2023-04-15T12:32:37.151Z,18.38
2023-04-15T12:37:28.759Z,18.40
2023-04-15T12:42:20.682Z,18.13
2023-04-15T12:47:12.933Z,17.81
2023-04-15T12:52:04.744Z,17.64
2023-04-15T12:56:56.947Z,17.59
2023-04-15T13:01:49.066Z,17.64
2023-04-15T13:06:41.182Z,17.50
2023-04-15T13:11:33.984Z,17.15
2023-04-15T13:16:25.742Z,16.89
2023-04-15T13:21:17.972Z,16.74
2023-04-15T13:26:09.723Z,16.47
2023-04-15T13:31:01.324Z,16.40
2023-04-15T13:35:53.169Z,16.22
2023-04-15T13:40:44.817Z,16.00
2023-04-15T13:45:36.444Z,16.02
2023-04-15T13:50:28.484Z,16.15
2023-04-15T13:55:22.292Z,16.21
2023-04-15T14:00:15.705Z,16.23
2023-04-15T14:05:07.630Z,16.10
2023-04-15T14:09:59.947Z,16.06
2023-04-15T14:14:51.481Z,16.12
2023-04-15T14:19:43.128Z,16.19
2023-04-15T14:24:34.740Z,16.23
2023-04-15T14:29:26.295Z,16.22
2023-04-15T14:34:17.985Z,16.17
2023-04-15T14:39:09.736Z,16.00
2023-04-15T14:44:01.395Z,16.00
2023-04-15T14:48:53.182Z,15.72
2023-04-15T14:53:45.807Z,15.63
2023-04-15T14:58:37.409Z,15.61
2023-04-15T15:03:29.673Z,15.57
2023-04-15T15:08:21.402Z,15.68
2023-04-15T15:13:12.989Z,15.71
2023-04-15T15:18:05.115Z,15.66
2023-04-15T15:22:56.885Z,15.65
2023-04-15T15:27:49.197Z,15.68
2023-04-15T15:32:42.277Z,15.74
2023-04-15T15:37:34.021Z,15.85
2023-04-15T15:42:25.616Z,15.94
2023-04-15T15:47:17.267Z,15.91
2023-04-15T15:52:08.932Z,15.84
2023-04-15T15:57:00.536Z,15.87
2023-04-15T16:01:52.351Z,15.88
2023-04-15T16:06:44.981Z,15.89
2023-04-15T16:11:36.613Z,15.83
2023-04-15T16:16:29.987Z,15.72
2023-04-15T16:21:21.645Z,15.69
2023-04-15T16:26:13.321Z,15.45
2023-04-15T16:31:04.923Z,15.27
2023-04-15T16:35:56.533Z,15.04
2023-04-15T16:40:48.140Z,14.93
2023-04-15T16:45:39.739Z,14.89
2023-04-15T16:50:31.577Z,14.88
2023-04-15T16:55:23.166Z,14.80
2023-04-15T17:00:15.956Z,14.78
2023-04-15T17:05:08.349Z,14.76
2023-04-15T17:10:00.057Z,14.71
2023-04-15T17:14:51.649Z,14.63
2023-04-15T17:19:43.314Z,14.56
2023-04-15T17:24:35.702Z,14.47
2023-04-15T17:29:27.523Z,14.41
2023-04-15T17:34:19.128Z,14.33
2023-04-15T17:39:11.603Z,14.30
2023-04-15T17:44:03.466Z,14.18
2023-04-15T17:48:55.250Z,14.01
2023-04-15T17:53:46.896Z,13.85
2023-04-15T17:58:39.302Z,13.73
2023-04-15T18:03:31.261Z,13.61
2023-04-15T18:08:22.969Z,13.48
2023-04-15T18:13:14.542Z,13.35
2023-04-15T18:18:06.051Z,13.26
2023-04-15T18:22:57.743Z,13.22
2023-04-15T18:27:49.583Z,13.13
2023-04-15T18:32:41.767Z,13.01
2023-04-15T18:37:33.525Z,12.94
2023-04-15T18:42:25.721Z,12.85
2023-04-15T18:47:17.909Z,12.74
2023-04-15T18:52:10.422Z,12.63
2023-04-15T18:57:03.965Z,12.53
2023-04-15T19:01:56.000Z,12.45
2023-04-15T19:06:48.234Z,12.38
2023-04-15T19:11:39.807Z,12.34
2023-04-15T19:16:31.942Z,12.27
2023-04-15T19:21:23.619Z,12.20
2023-04-15T19:26:15.217Z,12.13
2023-04-15T19:31:07.460Z,12.06
2023-04-15T19:36:04.739Z,12.01
2023-04-15T19:40:57.010Z,11.95
2023-04-15T19:45:52.301Z,11.90
2023-04-15T19:50:44.157Z,11.82
2023-04-15T19:55:35.776Z,11.75
2023-04-15T20:00:27.589Z,11.69
2023-04-15T20:05:19.213Z,11.65
2023-04-15T20:10:13.203Z,11.62
2023-04-15T20:15:06.304Z,11.62
2023-04-15T20:19:57.834Z,11.55
2023-04-15T20:24:49.481Z,11.51
2023-04-15T20:29:41.561Z,11.48
2023-04-15T20:34:33.225Z,11.40
2023-04-15T20:39:24.795Z,11.36
2023-04-15T20:44:16.855Z,11.36
2023-04-15T20:49:08.439Z,11.27
2023-04-15T20:53:59.986Z,11.22
2023-04-15T20:58:51.559Z,11.21
2023-04-15T21:03:43.311Z,11.17
2023-04-15T21:08:35.032Z,11.10
2023-04-15T21:13:26.628Z,11.05
2023-04-15T21:18:18.250Z,11.03
2023-04-15T21:23:11.323Z,10.99
2023-04-15T21:28:04.833Z,10.95
2023-04-15T21:32:56.687Z,10.92
2023-04-15T21:37:48.272Z,10.93
2023-04-15T21:42:39.804Z,10.90
2023-04-15T21:47:31.768Z,10.86
2023-04-15T21:52:43.270Z,10.84
2023-04-15T21:57:34.844Z,10.78
2023-04-15T22:02:26.931Z,10.78
2023-04-15T22:07:18.644Z,10.73
2023-04-15T22:12:10.372Z,10.70
2023-04-15T22:17:01.988Z,10.65
2023-04-15T22:21:53.580Z,10.61
2023-04-15T22:26:45.269Z,10.60
2023-04-15T22:31:36.899Z,10.53
2023-04-15T22:36:31.147Z,10.50
2023-04-15T22:41:22.819Z,10.46
2023-04-15T22:46:14.636Z,10.43
2023-04-15T22:51:06.488Z,10.39
2023-04-15T22:55:58.097Z,10.40
2023-04-15T23:00:50.256Z,10.37
2023-04-15T23:05:42.083Z,10.36
2023-04-15T23:10:33.910Z,10.35
2023-04-15T23:15:25.811Z,10.33
2023-04-15T23:20:17.435Z,10.36
2023-04-15T23:25:09.587Z,10.35
2023-04-15T23:30:01.157Z,10.31
2023-04-15T23:34:53.199Z,10.29
2023-04-15T23:39:45.087Z,10.28
2023-04-15T23:44:38.326Z,10.24
2023-04-15T23:49:30.159Z,10.24
2023-04-15T23:54:21.726Z,10.25
2023-04-15T23:59:13.315Z,10.25
